createdAt,value
2018-08-24T00:00:01.874Z,800.73
2018-08-24T00:00:05.975Z,800.76
2018-08-24T00:00:10.278Z,800.68
2018-08-24T00:00:14.378Z,800.76
2018-08-24T00:00:18.686Z,800.76
2018-08-24T00:00:22.992Z,800.75
2018-08-24T00:00:27.301Z,800.7
2018-08-24T00:00:31.502Z,800.74
2018-08-24T00:00:35.713Z,800.76
2018-08-24T00:00:39.808Z,800.78
2018-08-24T00:00:43.905Z,800.8
2018-08-24T00:00:48.003Z,800.77
2018-08-24T00:00:52.203Z,800.76
2018-08-24T00:00:56.514Z,800.8
2018-08-24T00:01:00.611Z,800.77
2018-08-24T00:01:04.823Z,800.75
2018-08-24T00:01:09.024Z,800.76
2018-08-24T00:01:13.331Z,800.79
2018-08-24T00:01:17.532Z,800.77
2018-08-24T00:01:21.841Z,800.76
2018-08-24T00:01:26.146Z,800.79
2018-08-24T00:01:30.447Z,800.77
2018-08-24T00:01:34.543Z,800.78
2018-08-24T00:01:38.738Z,800.81
2018-08-24T00:01:42.941Z,800.79
2018-08-24T00:01:47.153Z,800.81
2018-08-24T00:01:51.246Z,800.8
2018-08-24T00:01:55.556Z,800.74
2018-08-24T00:01:59.769Z,800.8
2018-08-24T00:02:04.012Z,800.81
2018-08-24T00:02:08.111Z,800.83
2018-08-24T00:02:12.210Z,800.79
2018-08-24T00:02:16.544Z,800.82
2018-08-24T00:02:20.741Z,800.81
2018-08-24T00:02:25.048Z,800.79
2018-08-24T00:02:29.248Z,800.78
2018-08-24T00:02:33.489Z,800.83
2018-08-24T00:02:37.485Z,800.79
2018-08-24T00:02:41.800Z,800.82
2018-08-24T00:02:45.995Z,800.83
2018-08-24T00:02:50.302Z,800.82
2018-08-24T00:02:54.509Z,800.84
2018-08-24T00:02:58.711Z,800.84
2018-08-24T00:03:02.917Z,800.81
2018-08-24T00:03:07.116Z,800.81
2018-08-24T00:03:11.214Z,800.83
2018-08-24T00:03:15.529Z,800.8
2018-08-24T00:03:19.730Z,800.82
2018-08-24T00:03:23.822Z,800.83
2018-08-24T00:03:27.924Z,800.84
2018-08-24T00:03:32.013Z,800.82
2018-08-24T00:03:36.113Z,800.82
2018-08-24T00:03:40.098Z,800.85
2018-08-24T00:03:44.409Z,800.84
2018-08-24T00:03:48.607Z,800.86
2018-08-24T00:03:52.815Z,800.84
2018-08-24T00:03:57.118Z,800.8
2018-08-24T00:04:01.105Z,800.84
2018-08-24T00:04:05.360Z,800.84
2018-08-24T00:04:09.676Z,800.84
2018-08-24T00:04:13.989Z,800.83
2018-08-24T00:04:18.301Z,800.84
2018-08-24T00:04:22.613Z,800.86
2018-08-24T00:04:26.710Z,800.82
2018-08-24T00:04:31.035Z,800.86
2018-08-24T00:04:35.240Z,800.84
2018-08-24T00:04:39.545Z,800.85
2018-08-24T00:04:43.748Z,800.85
2018-08-24T00:04:47.947Z,800.85
2018-08-24T00:04:52.262Z,800.85
2018-08-24T00:04:56.145Z,800.84
2018-08-24T00:05:00.371Z,800.83
2018-08-24T00:05:04.371Z,800.87
2018-08-24T00:05:08.579Z,800.86
2018-08-24T00:05:12.565Z,800.87
2018-08-24T00:05:16.667Z,800.88
2018-08-24T00:05:20.793Z,800.87
2018-08-24T00:05:24.997Z,800.87
2018-08-24T00:05:29.305Z,800.86
2018-08-24T00:05:33.618Z,800.87
2018-08-24T00:05:37.818Z,800.86
2018-08-24T00:05:42.023Z,800.86
2018-08-24T00:05:46.334Z,800.83
2018-08-24T00:05:50.536Z,800.87
2018-08-24T00:05:54.738Z,800.86
2018-08-24T00:05:58.730Z,800.86
2018-08-24T00:06:02.611Z,800.86
2018-08-24T00:06:06.814Z,800.84
2018-08-24T00:06:11.019Z,800.85
2018-08-24T00:06:15.217Z,800.84
2018-08-24T00:06:19.428Z,800.8
2018-08-24T00:06:23.741Z,800.81
2018-08-24T00:06:27.943Z,800.84
2018-08-24T00:06:31.932Z,800.82
2018-08-24T00:06:36.189Z,800.85
2018-08-24T00:06:40.400Z,800.85
2018-08-24T00:06:44.604Z,800.83
2018-08-24T00:06:48.911Z,800.85
2018-08-24T00:06:53.109Z,800.85
2018-08-24T00:06:57.204Z,800.83
2018-08-24T00:07:01.527Z,800.87
2018-08-24T00:07:05.741Z,800.85
2018-08-24T00:07:09.882Z,800.86
2018-08-24T00:07:14.105Z,800.84
2018-08-24T00:07:18.493Z,800.87
2018-08-24T00:07:23.044Z,800.82
2018-08-24T00:07:28.196Z,800.84
2018-08-24T00:07:32.943Z,800.81
2018-08-24T00:07:37.043Z,800.87
2018-08-24T00:07:41.361Z,800.84
2018-08-24T00:07:45.588Z,800.87
2018-08-24T00:07:49.795Z,800.88
2018-08-24T00:07:53.996Z,800.85
2018-08-24T00:07:58.255Z,800.85
2018-08-24T00:08:02.354Z,800.85
2018-08-24T00:08:06.456Z,800.85
2018-08-24T00:08:10.773Z,800.83
2018-08-24T00:08:14.867Z,800.84
2018-08-24T00:08:18.980Z,800.82
2018-08-24T00:08:23.069Z,800.82
2018-08-24T00:08:27.265Z,800.88
2018-08-24T00:08:31.475Z,800.8
2018-08-24T00:08:35.563Z,800.86
2018-08-24T00:08:39.661Z,800.86
2018-08-24T00:08:43.864Z,800.85
2018-08-24T00:08:48.172Z,800.85
2018-08-24T00:08:52.376Z,800.88
2018-08-24T00:08:56.723Z,800.87
2018-08-24T00:09:00.924Z,800.87
2018-08-24T00:09:04.816Z,800.88
2018-08-24T00:09:09.127Z,800.86
2018-08-24T00:09:13.334Z,800.85
2018-08-24T00:09:17.654Z,800.86
2018-08-24T00:09:21.752Z,800.85
2018-08-24T00:09:25.968Z,800.87
2018-08-24T00:09:30.069Z,800.84
2018-08-24T00:09:34.272Z,800.86
2018-08-24T00:09:38.574Z,800.88
2018-08-24T00:09:42.774Z,800.83
2018-08-24T00:09:46.992Z,800.82
2018-08-24T00:09:51.205Z,800.86
2018-08-24T00:09:55.291Z,800.84
2018-08-24T00:09:59.490Z,800.87
2018-08-24T00:10:03.476Z,800.85
2018-08-24T00:10:07.608Z,800.86
2018-08-24T00:10:11.825Z,800.84
2018-08-24T00:10:15.815Z,800.83
2018-08-24T00:10:20.025Z,800.85
2018-08-24T00:10:24.019Z,800.84
2018-08-24T00:10:28.358Z,800.87
2018-08-24T00:10:32.454Z,800.88
2018-08-24T00:10:36.552Z,800.88
2018-08-24T00:10:40.665Z,800.87
2018-08-24T00:10:44.649Z,800.87
2018-08-24T00:10:48.863Z,800.86
2018-08-24T00:10:53.059Z,800.87
2018-08-24T00:10:57.161Z,800.86
2018-08-24T00:11:01.254Z,800.86
2018-08-24T00:11:05.632Z,800.81
2018-08-24T00:11:09.811Z,800.88
2018-08-24T00:11:13.903Z,800.88
2018-08-24T00:11:18.140Z,800.91
2018-08-24T00:11:22.299Z,800.88
2018-08-24T00:11:26.603Z,800.86
2018-08-24T00:11:30.802Z,800.9
2018-08-24T00:11:35.111Z,800.89
2018-08-24T00:11:39.209Z,800.9
2018-08-24T00:11:43.411Z,800.89
2018-08-24T00:11:47.509Z,800.9
2018-08-24T00:11:51.492Z,800.92
2018-08-24T00:11:55.805Z,800.9
2018-08-24T00:12:00.002Z,800.88
2018-08-24T00:12:04.252Z,800.9
2018-08-24T00:12:08.340Z,800.91
2018-08-24T00:12:12.333Z,800.93
2018-08-24T00:12:16.539Z,800.87
2018-08-24T00:12:20.733Z,800.89
2018-08-24T00:12:24.929Z,800.88
2018-08-24T00:12:29.159Z,800.9
2018-08-24T00:12:33.251Z,800.85
2018-08-24T00:12:37.566Z,800.88
2018-08-24T00:12:41.874Z,800.92
2018-08-24T00:12:46.078Z,800.93
2018-08-24T00:12:50.182Z,800.89
2018-08-24T00:12:54.479Z,800.91
2018-08-24T00:12:58.675Z,800.91
2018-08-24T00:13:02.768Z,800.88
2018-08-24T00:13:07.069Z,800.89
2018-08-24T00:13:11.266Z,800.94
2018-08-24T00:13:15.479Z,800.95
2018-08-24T00:13:19.780Z,800.92
2018-08-24T00:13:24.085Z,800.87
2018-08-24T00:13:28.382Z,800.89
2018-08-24T00:13:32.592Z,800.91
2018-08-24T00:13:36.685Z,800.91
2018-08-24T00:13:40.670Z,800.93
2018-08-24T00:13:44.917Z,800.91
2018-08-24T00:13:49.226Z,800.93
2018-08-24T00:13:53.422Z,800.92
2018-08-24T00:13:57.618Z,800.94
2018-08-24T00:14:01.707Z,800.93
2018-08-24T00:14:05.696Z,800.9
2018-08-24T00:14:09.803Z,800.94
2018-08-24T00:14:14.013Z,800.95
2018-08-24T00:14:18.329Z,800.91
2018-08-24T00:14:22.640Z,800.95
2018-08-24T00:14:26.840Z,800.96
2018-08-24T00:14:31.035Z,800.95
2018-08-24T00:14:35.124Z,800.94
2018-08-24T00:14:39.326Z,800.95
2018-08-24T00:14:43.414Z,800.96
2018-08-24T00:14:47.720Z,801
2018-08-24T00:14:51.818Z,800.93
2018-08-24T00:14:56.123Z,800.91
2018-08-24T00:15:00.215Z,800.96
2018-08-24T00:15:04.357Z,800.94
2018-08-24T00:15:08.445Z,800.96
2018-08-24T00:15:12.742Z,800.96
2018-08-24T00:15:16.836Z,800.98
2018-08-24T00:15:21.033Z,800.92
2018-08-24T00:15:25.225Z,800.98
2018-08-24T00:15:29.427Z,801.01
2018-08-24T00:15:33.624Z,800.98
2018-08-24T00:15:37.821Z,800.96
2018-08-24T00:15:42.120Z,800.97
2018-08-24T00:15:46.209Z,801
2018-08-24T00:15:50.513Z,800.95
2018-08-24T00:15:54.612Z,800.98
2018-08-24T00:15:58.924Z,801.01
2018-08-24T00:16:03.284Z,801
2018-08-24T00:16:07.586Z,800.96
2018-08-24T00:16:11.791Z,801.01
2018-08-24T00:16:15.886Z,801.01
2018-08-24T00:16:19.877Z,800.99
2018-08-24T00:16:24.077Z,801.02
2018-08-24T00:16:28.213Z,801.02
2018-08-24T00:16:32.517Z,801.03
2018-08-24T00:16:36.610Z,801.01
2018-08-24T00:16:40.593Z,801.01
2018-08-24T00:16:44.788Z,801.02
2018-08-24T00:16:48.987Z,800.99
2018-08-24T00:16:52.977Z,801.03
2018-08-24T00:16:57.179Z,800.97
2018-08-24T00:17:01.378Z,801.02
2018-08-24T00:17:05.698Z,801.05
2018-08-24T00:17:09.892Z,801.03
2018-08-24T00:17:13.768Z,801.03
2018-08-24T00:17:17.860Z,801.06
2018-08-24T00:17:21.950Z,801.03
2018-08-24T00:17:26.145Z,801.04
2018-08-24T00:17:30.492Z,801.05
2018-08-24T00:17:34.583Z,801.05
2018-08-24T00:17:38.789Z,801.06
2018-08-24T00:17:42.982Z,801.06
2018-08-24T00:17:47.189Z,801.01
2018-08-24T00:17:51.496Z,801.05
2018-08-24T00:17:55.695Z,801.05
2018-08-24T00:17:59.888Z,801.05
2018-08-24T00:18:04.095Z,801.07
2018-08-24T00:18:08.300Z,801.06
2018-08-24T00:18:12.287Z,801.05
2018-08-24T00:18:16.390Z,801.05
2018-08-24T00:18:20.485Z,801.04
2018-08-24T00:18:24.783Z,801.06
2018-08-24T00:18:29.084Z,801.05
2018-08-24T00:18:33.183Z,801.05
2018-08-24T00:18:37.274Z,801.08
2018-08-24T00:18:41.469Z,801.06
2018-08-24T00:18:45.452Z,801.07
2018-08-24T00:18:49.753Z,801.07
2018-08-24T00:18:53.737Z,801.07
2018-08-24T00:18:57.943Z,801.06
2018-08-24T00:19:02.139Z,801.07
2018-08-24T00:19:06.229Z,801.07
2018-08-24T00:19:10.429Z,801.05
2018-08-24T00:19:14.760Z,801.08
2018-08-24T00:19:18.855Z,801.09
2018-08-24T00:19:23.158Z,801.1
2018-08-24T00:19:27.460Z,801.1
2018-08-24T00:19:31.697Z,801.11
2018-08-24T00:19:36.005Z,801.08
2018-08-24T00:19:40.217Z,801.08
2018-08-24T00:19:44.521Z,801.07
2018-08-24T00:19:48.830Z,801.12
2018-08-24T00:19:52.918Z,801.11
2018-08-24T00:19:57.015Z,801.09
2018-08-24T00:20:01.223Z,801.09
2018-08-24T00:20:05.519Z,801.07
2018-08-24T00:20:09.723Z,801.09
2018-08-24T00:20:13.921Z,801.09
2018-08-24T00:20:18.117Z,801.11
2018-08-24T00:20:22.424Z,801.09
2018-08-24T00:20:26.733Z,801.1
2018-08-24T00:20:31.058Z,801.09
2018-08-24T00:20:35.376Z,801.1
2018-08-24T00:20:39.360Z,801.12
2018-08-24T00:20:43.562Z,801.08
2018-08-24T00:20:47.763Z,801.05
2018-08-24T00:20:51.755Z,801.09
2018-08-24T00:20:56.057Z,801.1
2018-08-24T00:21:00.305Z,801.12
2018-08-24T00:21:04.505Z,801.11
2018-08-24T00:21:08.806Z,801.13
2018-08-24T00:21:13.118Z,801.14
2018-08-24T00:21:17.212Z,801.11
2018-08-24T00:21:21.198Z,801.12
2018-08-24T00:21:25.502Z,801.11
2018-08-24T00:21:29.700Z,801.12
2018-08-24T00:21:33.901Z,801.13
2018-08-24T00:21:37.994Z,801.11
2018-08-24T00:21:42.197Z,801.13
2018-08-24T00:21:46.530Z,801.1
2018-08-24T00:21:50.840Z,801.08
2018-08-24T00:21:54.941Z,801.1
2018-08-24T00:21:59.136Z,801.08
2018-08-24T00:22:03.346Z,801.1
2018-08-24T00:22:07.339Z,801.13
2018-08-24T00:22:11.220Z,801.12
2018-08-24T00:22:15.422Z,801.09
2018-08-24T00:22:19.620Z,801.13
2018-08-24T00:22:23.928Z,801.12
2018-08-24T00:22:28.127Z,801.1
2018-08-24T00:22:32.322Z,801.13
2018-08-24T00:22:36.536Z,801.14
2018-08-24T00:22:40.632Z,801.14
2018-08-24T00:22:44.938Z,801.14
2018-08-24T00:22:49.135Z,801.16
2018-08-24T00:22:53.437Z,801.16
2018-08-24T00:22:57.637Z,801.14
2018-08-24T00:23:01.834Z,801.1
2018-08-24T00:23:05.921Z,801.16
2018-08-24T00:23:10.227Z,801.15
2018-08-24T00:23:14.528Z,801.15
2018-08-24T00:23:18.620Z,801.17
2018-08-24T00:23:22.935Z,801.16
2018-08-24T00:23:27.132Z,801.16
2018-08-24T00:23:31.324Z,801.12
2018-08-24T00:23:35.541Z,801.13
2018-08-24T00:23:39.635Z,801.16
2018-08-24T00:23:43.937Z,801.17
2018-08-24T00:23:48.136Z,801.18
2018-08-24T00:23:52.435Z,801.16
2018-08-24T00:23:56.431Z,801.18
2018-08-24T00:24:00.536Z,801.16
2018-08-24T00:24:04.627Z,801.19
2018-08-24T00:24:08.824Z,801.18
2018-08-24T00:24:13.029Z,801.2
2018-08-24T00:24:17.230Z,801.18
2018-08-24T00:24:21.424Z,801.16
2018-08-24T00:24:25.626Z,801.17
2018-08-24T00:24:29.720Z,801.12
2018-08-24T00:24:33.922Z,801.16
2018-08-24T00:24:38.121Z,801.16
2018-08-24T00:24:42.441Z,801.15
2018-08-24T00:24:46.638Z,801.14
2018-08-24T00:24:50.849Z,801.16
2018-08-24T00:24:55.055Z,801.17
2018-08-24T00:24:59.256Z,801.16
2018-08-24T00:25:03.355Z,801.15
2018-08-24T00:25:07.449Z,801.17
2018-08-24T00:25:11.651Z,801.14
2018-08-24T00:25:15.638Z,801.16
2018-08-24T00:25:19.839Z,801.16
2018-08-24T00:25:24.154Z,801.17
2018-08-24T00:25:28.464Z,801.18
2018-08-24T00:25:32.666Z,801.16
2018-08-24T00:25:36.879Z,801.16
2018-08-24T00:25:40.979Z,801.16
2018-08-24T00:25:45.177Z,801.14
2018-08-24T00:25:49.476Z,801.15
2018-08-24T00:25:53.778Z,801.1
2018-08-24T00:25:57.981Z,801.13
2018-08-24T00:26:02.183Z,801.14
2018-08-24T00:26:06.489Z,801.15
2018-08-24T00:26:10.691Z,801.13
2018-08-24T00:26:14.999Z,801.18
2018-08-24T00:26:19.200Z,801.15
2018-08-24T00:26:23.397Z,801.15
2018-08-24T00:26:27.490Z,801.14
2018-08-24T00:26:31.688Z,801.16
2018-08-24T00:26:35.891Z,801.12
2018-08-24T00:26:39.989Z,801.15
2018-08-24T00:26:44.302Z,801.16
2018-08-24T00:26:48.509Z,801.09
2018-08-24T00:26:52.821Z,801.14
2018-08-24T00:26:56.913Z,801.11
2018-08-24T00:27:01.227Z,801.13
2018-08-24T00:27:05.484Z,801.11
2018-08-24T00:27:09.582Z,801.08
2018-08-24T00:27:13.798Z,801.12
2018-08-24T00:27:18.000Z,801.1
2018-08-24T00:27:22.312Z,801.09
2018-08-24T00:27:26.415Z,801.09
2018-08-24T00:27:30.617Z,801.13
2018-08-24T00:27:34.718Z,801.07
2018-08-24T00:27:38.826Z,801.11
2018-08-24T00:27:43.024Z,801.09
2018-08-24T00:27:47.223Z,801.14
2018-08-24T00:27:51.422Z,801.13
2018-08-24T00:27:55.620Z,801.09
2018-08-24T00:27:59.817Z,801.12
2018-08-24T00:28:04.069Z,801.12
2018-08-24T00:28:08.369Z,801.11
2018-08-24T00:28:12.568Z,801.1
2018-08-24T00:28:16.770Z,801.11
2018-08-24T00:28:20.870Z,801.12
2018-08-24T00:28:25.073Z,801.13
2018-08-24T00:28:29.389Z,801.11
2018-08-24T00:28:33.478Z,801.08
2018-08-24T00:28:37.467Z,801.06
2018-08-24T00:28:41.666Z,801.09
2018-08-24T00:28:45.860Z,801.12
2018-08-24T00:28:50.054Z,801.1
2018-08-24T00:28:54.254Z,801.09
2018-08-24T00:28:58.448Z,801.12
2018-08-24T00:29:02.654Z,801.1
2018-08-24T00:29:06.745Z,801.06
2018-08-24T00:29:10.845Z,801.09
2018-08-24T00:29:15.045Z,801.09
2018-08-24T00:29:19.132Z,801.08
2018-08-24T00:29:23.444Z,801.11
2018-08-24T00:29:27.538Z,801.1
2018-08-24T00:29:31.633Z,801.07
2018-08-24T00:29:35.723Z,801.09
2018-08-24T00:29:40.072Z,801.06
2018-08-24T00:29:44.265Z,801.05
2018-08-24T00:29:48.372Z,801.12
2018-08-24T00:29:52.476Z,801.07
2018-08-24T00:29:56.792Z,801.06
2018-08-24T00:30:01.105Z,801.07
2018-08-24T00:30:05.200Z,801.1
2018-08-24T00:30:09.191Z,801.09
2018-08-24T00:30:13.389Z,801.08
2018-08-24T00:30:17.691Z,801.08
2018-08-24T00:30:21.997Z,801.09
2018-08-24T00:30:26.201Z,801.08
2018-08-24T00:30:30.409Z,801.1
2018-08-24T00:30:34.740Z,801.08
2018-08-24T00:30:38.942Z,801.09
2018-08-24T00:30:43.135Z,801.11
2018-08-24T00:30:47.230Z,801.09
2018-08-24T00:30:51.426Z,801.08
2018-08-24T00:30:55.726Z,801.1
2018-08-24T00:30:59.815Z,801.08
2018-08-24T00:31:04.017Z,801.09
2018-08-24T00:31:08.216Z,801.1
2018-08-24T00:31:12.314Z,801.11
2018-08-24T00:31:16.512Z,801.1
2018-08-24T00:31:20.603Z,801.1
2018-08-24T00:31:24.924Z,801.09
2018-08-24T00:31:29.115Z,801.05
2018-08-24T00:31:33.131Z,801.1
2018-08-24T00:31:37.593Z,801.08
2018-08-24T00:31:42.385Z,801.07
2018-08-24T00:31:47.039Z,801.03
2018-08-24T00:31:51.977Z,801.08
2018-08-24T00:31:56.507Z,801.05
2018-08-24T00:32:00.495Z,801.09
2018-08-24T00:32:04.741Z,801.09
2018-08-24T00:32:08.957Z,801.07
2018-08-24T00:32:13.274Z,801.02
2018-08-24T00:32:17.474Z,801.08
2018-08-24T00:32:21.788Z,801.12
2018-08-24T00:32:26.116Z,801.06
2018-08-24T00:32:30.318Z,801.02
2018-08-24T00:32:34.516Z,801.07
2018-08-24T00:32:38.835Z,801.06
2018-08-24T00:32:43.055Z,801.09
2018-08-24T00:32:47.259Z,801.02
2018-08-24T00:32:51.459Z,801.07
2018-08-24T00:32:55.654Z,801.08
2018-08-24T00:32:59.868Z,801.07
2018-08-24T00:33:04.119Z,801.08
2018-08-24T00:33:08.226Z,801.06
2018-08-24T00:33:12.322Z,801.07
2018-08-24T00:33:16.418Z,801.05
2018-08-24T00:33:20.625Z,801.08
2018-08-24T00:33:24.934Z,801.08
2018-08-24T00:33:29.079Z,801.07
2018-08-24T00:33:33.284Z,801.09
2018-08-24T00:33:37.488Z,801.07
2018-08-24T00:33:41.689Z,801.1
2018-08-24T00:33:45.998Z,801.1
2018-08-24T00:33:50.302Z,801.08
2018-08-24T00:33:54.395Z,801.03
2018-08-24T00:33:58.596Z,801.07
2018-08-24T00:34:02.798Z,801.1
2018-08-24T00:34:06.991Z,801.11
2018-08-24T00:34:11.201Z,801.09
2018-08-24T00:34:15.402Z,801.1
2018-08-24T00:34:19.600Z,801.09
2018-08-24T00:34:23.798Z,801.06
2018-08-24T00:34:27.996Z,801.08
2018-08-24T00:34:32.310Z,801.1
2018-08-24T00:34:36.512Z,801.07
2018-08-24T00:34:40.653Z,801.02
2018-08-24T00:34:44.858Z,801.06
2018-08-24T00:34:49.063Z,801.07
2018-08-24T00:34:53.370Z,801.07
2018-08-24T00:34:57.680Z,801.09
2018-08-24T00:35:02.041Z,801.09
2018-08-24T00:35:06.039Z,801.08
2018-08-24T00:35:10.356Z,801.08
2018-08-24T00:35:14.665Z,801.08
2018-08-24T00:35:18.975Z,801.02
2018-08-24T00:35:23.174Z,801.09
2018-08-24T00:35:27.379Z,801.08
2018-08-24T00:35:31.685Z,801.1
2018-08-24T00:35:35.885Z,801.03
2018-08-24T00:35:39.976Z,801.02
2018-08-24T00:35:44.072Z,801.07
2018-08-24T00:35:48.373Z,801.09
2018-08-24T00:35:52.464Z,801.07
2018-08-24T00:35:56.450Z,801.09
2018-08-24T00:36:00.543Z,801.06
2018-08-24T00:36:04.847Z,801.08
2018-08-24T00:36:08.726Z,801.06
2018-08-24T00:36:12.821Z,801.09
2018-08-24T00:36:16.918Z,801.08
2018-08-24T00:36:21.262Z,801.05
2018-08-24T00:36:25.459Z,801.06
2018-08-24T00:36:29.781Z,801.06
2018-08-24T00:36:33.979Z,801.06
2018-08-24T00:36:38.181Z,801.09
2018-08-24T00:36:42.380Z,801.05
2018-08-24T00:36:46.370Z,801.05
2018-08-24T00:36:50.672Z,801.07
2018-08-24T00:36:54.869Z,801.05
2018-08-24T00:36:59.067Z,801.07
2018-08-24T00:37:03.272Z,801.08
2018-08-24T00:37:07.574Z,801.07
2018-08-24T00:37:11.669Z,801.08
2018-08-24T00:37:15.871Z,801.07
2018-08-24T00:37:20.073Z,801.06
2018-08-24T00:37:24.375Z,801.07
2018-08-24T00:37:28.604Z,801.06
2018-08-24T00:37:32.907Z,801.07
2018-08-24T00:37:37.113Z,801.03
2018-08-24T00:37:41.309Z,801.08
2018-08-24T00:37:45.640Z,801.09
2018-08-24T00:37:49.803Z,801.08
2018-08-24T00:37:54.117Z,801.07
2018-08-24T00:37:58.321Z,801.07
2018-08-24T00:38:02.633Z,801.1
2018-08-24T00:38:06.737Z,801.1
2018-08-24T00:38:10.829Z,801.05
2018-08-24T00:38:15.143Z,801.07
2018-08-24T00:38:19.346Z,801.08
2018-08-24T00:38:23.544Z,801.03
2018-08-24T00:38:27.631Z,801.05
2018-08-24T00:38:31.615Z,801.06
2018-08-24T00:38:35.921Z,801.08
2018-08-24T00:38:40.236Z,801.1
2018-08-24T00:38:44.542Z,801.08
2018-08-24T00:38:48.746Z,801.06
2018-08-24T00:38:53.052Z,801.08
2018-08-24T00:38:57.251Z,801.1
2018-08-24T00:39:01.569Z,801.1
2018-08-24T00:39:05.671Z,801.08
2018-08-24T00:39:09.873Z,801.1
2018-08-24T00:39:14.180Z,801.05
2018-08-24T00:39:18.492Z,801.03
2018-08-24T00:39:22.583Z,801.07
2018-08-24T00:39:26.901Z,801.04
2018-08-24T00:39:30.998Z,801.06
2018-08-24T00:39:35.207Z,801.1
2018-08-24T00:39:39.417Z,801.04
2018-08-24T00:39:43.724Z,801.09
2018-08-24T00:39:48.055Z,801.08
2018-08-24T00:39:52.260Z,801.07
2018-08-24T00:39:56.365Z,801.04
2018-08-24T00:40:00.647Z,801.07
2018-08-24T00:40:04.428Z,801.09
2018-08-24T00:40:08.519Z,801.1
2018-08-24T00:40:12.504Z,801.1
2018-08-24T00:40:16.700Z,801.07
2018-08-24T00:40:21.007Z,801.09
2018-08-24T00:40:25.369Z,801.05
2018-08-24T00:40:29.465Z,801.1
2018-08-24T00:40:33.820Z,801.06
2018-08-24T00:40:38.021Z,801.09
2018-08-24T00:40:42.129Z,801.11
2018-08-24T00:40:46.323Z,801.09
2018-08-24T00:40:50.523Z,801.11
2018-08-24T00:40:54.837Z,801.09
2018-08-24T00:40:59.033Z,801.09
2018-08-24T00:41:03.125Z,801.1
2018-08-24T00:41:07.106Z,801.12
2018-08-24T00:41:11.205Z,801.11
2018-08-24T00:41:15.511Z,801.09
2018-08-24T00:41:19.600Z,801.1
2018-08-24T00:41:23.799Z,801.11
2018-08-24T00:41:27.888Z,801.06
2018-08-24T00:41:32.200Z,801.11
2018-08-24T00:41:36.293Z,801.04
2018-08-24T00:41:40.397Z,801.12
2018-08-24T00:41:44.594Z,801.1
2018-08-24T00:41:48.818Z,801.11
2018-08-24T00:41:53.031Z,801.05
2018-08-24T00:41:57.238Z,801.1
2018-08-24T00:42:01.547Z,801.11
2018-08-24T00:42:05.643Z,801.11
2018-08-24T00:42:09.736Z,801.11
2018-08-24T00:42:13.828Z,801.1
2018-08-24T00:42:18.021Z,801.13
2018-08-24T00:42:22.120Z,801.08
2018-08-24T00:42:26.422Z,801.12
2018-08-24T00:42:30.566Z,801.09
2018-08-24T00:42:34.745Z,801.12
2018-08-24T00:42:39.091Z,801.11
2018-08-24T00:42:43.758Z,801.1
2018-08-24T00:42:48.784Z,801.08
2018-08-24T00:42:53.694Z,801.14
2018-08-24T00:42:57.896Z,801.12
2018-08-24T00:43:01.996Z,801.11
2018-08-24T00:43:06.095Z,801.12
2018-08-24T00:43:10.298Z,801.13
2018-08-24T00:43:14.613Z,801.1
2018-08-24T00:43:18.815Z,801.08
2018-08-24T00:43:23.011Z,801.12
2018-08-24T00:43:27.317Z,801.13
2018-08-24T00:43:31.621Z,801.09
2018-08-24T00:43:35.930Z,801.1
2018-08-24T00:43:40.132Z,801.11
2018-08-24T00:43:44.438Z,801.12
2018-08-24T00:43:48.742Z,801.12
2018-08-24T00:43:52.725Z,801.12
2018-08-24T00:43:56.928Z,801.1
2018-08-24T00:44:01.135Z,801.1
2018-08-24T00:44:05.345Z,801.13
2018-08-24T00:44:09.663Z,801.09
2018-08-24T00:44:13.973Z,801.09
2018-08-24T00:44:18.176Z,801.1
2018-08-24T00:44:22.379Z,801.06
2018-08-24T00:44:26.486Z,801.12
2018-08-24T00:44:30.476Z,801.11
2018-08-24T00:44:34.784Z,801.12
2018-08-24T00:44:38.988Z,801.09
2018-08-24T00:44:43.190Z,801.12
2018-08-24T00:44:47.505Z,801.11
2018-08-24T00:44:51.812Z,801.11
2018-08-24T00:44:56.121Z,801.12
2018-08-24T00:45:00.421Z,801.12
2018-08-24T00:45:04.401Z,801.13
2018-08-24T00:45:08.596Z,801.12
2018-08-24T00:45:12.794Z,801.14
2018-08-24T00:45:17.020Z,801.14
2018-08-24T00:45:21.003Z,801.17
2018-08-24T00:45:24.990Z,801.14
2018-08-24T00:45:29.187Z,801.17
2018-08-24T00:45:33.492Z,801.14
2018-08-24T00:45:37.690Z,801.14
2018-08-24T00:45:41.997Z,801.15
2018-08-24T00:45:46.301Z,801.12
2018-08-24T00:45:50.503Z,801.13
2018-08-24T00:45:54.808Z,801.14
2018-08-24T00:45:59.116Z,801.17
2018-08-24T00:46:03.585Z,801.18
2018-08-24T00:46:07.824Z,801.16
2018-08-24T00:46:11.915Z,801.15
2018-08-24T00:46:16.013Z,801.18
2018-08-24T00:46:20.364Z,801.15
2018-08-24T00:46:24.568Z,801.17
2018-08-24T00:46:28.874Z,801.18
2018-08-24T00:46:33.179Z,801.15
2018-08-24T00:46:37.377Z,801.2
2018-08-24T00:46:41.688Z,801.21
2018-08-24T00:46:45.778Z,801.18
2018-08-24T00:46:49.764Z,801.2
2018-08-24T00:46:54.025Z,801.22
2018-08-24T00:46:58.333Z,801.19
2018-08-24T00:47:02.686Z,801.17
2018-08-24T00:47:06.891Z,801.2
2018-08-24T00:47:11.198Z,801.22
2018-08-24T00:47:15.499Z,801.13
2018-08-24T00:47:19.802Z,801.2
2018-08-24T00:47:23.785Z,801.13
2018-08-24T00:47:28.091Z,801.19
2018-08-24T00:47:32.285Z,801.19
2018-08-24T00:47:36.486Z,801.18
2018-08-24T00:47:40.691Z,801.2
2018-08-24T00:47:44.779Z,801.2
2018-08-24T00:47:48.978Z,801.17
2018-08-24T00:47:53.288Z,801.19
2018-08-24T00:47:57.485Z,801.18
2018-08-24T00:48:01.802Z,801.18
2018-08-24T00:48:05.891Z,801.18
2018-08-24T00:48:10.211Z,801.18
2018-08-24T00:48:14.317Z,801.22
2018-08-24T00:48:18.310Z,801.19
2018-08-24T00:48:22.422Z,801.21
2018-08-24T00:48:26.612Z,801.16
2018-08-24T00:48:30.926Z,801.22
2018-08-24T00:48:35.123Z,801.21
2018-08-24T00:48:39.321Z,801.18
2018-08-24T00:48:43.524Z,801.22
2018-08-24T00:48:47.827Z,801.2
2018-08-24T00:48:51.914Z,801.22
2018-08-24T00:48:56.211Z,801.19
2018-08-24T00:49:00.514Z,801.22
2018-08-24T00:49:04.781Z,801.22
2018-08-24T00:49:08.872Z,801.23
2018-08-24T00:49:13.072Z,801.24
2018-08-24T00:49:17.265Z,801.22
2018-08-24T00:49:21.476Z,801.22
2018-08-24T00:49:25.565Z,801.24
2018-08-24T00:49:29.806Z,801.23
2018-08-24T00:49:34.110Z,801.23
2018-08-24T00:49:38.417Z,801.23
2018-08-24T00:49:42.730Z,801.26
2018-08-24T00:49:47.035Z,801.25
2018-08-24T00:49:51.237Z,801.23
2018-08-24T00:49:55.444Z,801.25
2018-08-24T00:49:59.755Z,801.23
2018-08-24T00:50:04.108Z,801.25
2018-08-24T00:50:08.417Z,801.23
2018-08-24T00:50:12.725Z,801.24
2018-08-24T00:50:16.927Z,801.24
2018-08-24T00:50:21.241Z,801.24
2018-08-24T00:50:25.441Z,801.26
2018-08-24T00:50:29.543Z,801.24
2018-08-24T00:50:33.851Z,801.24
2018-08-24T00:50:38.047Z,801.25
2018-08-24T00:50:42.250Z,801.22
2018-08-24T00:50:46.559Z,801.26
2018-08-24T00:50:50.777Z,801.29
2018-08-24T00:50:54.980Z,801.29
2018-08-24T00:50:59.285Z,801.24
2018-08-24T00:51:03.384Z,801.27
2018-08-24T00:51:07.583Z,801.27
2018-08-24T00:51:11.797Z,801.2
2018-08-24T00:51:15.994Z,801.27
2018-08-24T00:51:20.301Z,801.29
2018-08-24T00:51:24.603Z,801.28
2018-08-24T00:51:28.815Z,801.22
2018-08-24T00:51:33.021Z,801.29
2018-08-24T00:51:37.332Z,801.24
2018-08-24T00:51:41.632Z,801.28
2018-08-24T00:51:45.943Z,801.27
2018-08-24T00:51:50.249Z,801.28
2018-08-24T00:51:54.234Z,801.29
2018-08-24T00:51:58.544Z,801.28
2018-08-24T00:52:02.744Z,801.26
2018-08-24T00:52:06.836Z,801.25
2018-08-24T00:52:10.933Z,801.26
2018-08-24T00:52:15.145Z,801.28
2018-08-24T00:52:19.456Z,801.32
2018-08-24T00:52:23.548Z,801.3
2018-08-24T00:52:27.746Z,801.31
2018-08-24T00:52:31.905Z,801.33
2018-08-24T00:52:36.101Z,801.28
2018-08-24T00:52:40.308Z,801.27